Time;durP1;ratioP1;P1;durP2;ratioP2;P2;SDS_P1;SDS_P2;PMS_P1;PMS_P2;Temp;Humidity;BMP_temperature;BMP_pressure;BME280_temperature;BME280_humidity;BME280_pressure;Samples;Min_cycle;Max_cycle;Signal;HPM_P1;HPM_P2
2021/10/01 00:01:27;;;;;;;6.50;2.53;;;6.40;87.50;;;;;;5037032;28;20022;-69
2021/10/01 00:03:52;;;;;;;5.93;2.40;;;6.40;87.60;;;;;;5038201;28;20082;-68
2021/10/01 00:06:19;;;;;;;3.60;2.83;;;6.30;87.50;;;;;;5045483;28;20438;-69
2021/10/01 00:08:44;;;;;;;3.90;2.17;;;6.30;87.60;;;;;;5045373;28;20472;-69
2021/10/01 00:11:10;;;;;;;4.53;2.88;;;6.30;87.60;;;;;;5036849;28;20104;-69
2021/10/01 00:13:37;;;;;;;5.22;3.17;;;6.20;87.80;;;;;;5050017;28;20382;-68
2021/10/01 00:16:04;;;;;;;6.35;3.10;;;6.30;88.00;;;;;;5039312;28;20024;-69
2021/10/01 00:18:29;;;;;;;6.53;2.60;;;6.30;87.70;;;;;;5043670;28;20029;-69
2021/10/01 00:20:55;;;;;;;4.68;2.50;;;6.30;87.60;;;;;;5046316;28;20048;-69
2021/10/01 00:23:21;;;;;;;5.57;2.97;;;6.30;87.40;;;;;;5036660;28;20070;-69
2021/10/01 00:25:46;;;;;;;3.30;2.50;;;6.40;87.30;;;;;;5048242;28;20475;-69
2021/10/01 00:28:12;;;;;;;3.63;3.10;;;6.30;87.20;;;;;;5035213;28;20113;-69
2021/10/01 00:30:38;;;;;;;6.70;2.88;;;6.30;87.30;;;;;;5043694;28;20060;-69
2021/10/01 00:33:03;;;;;;;4.43;2.67;;;6.30;87.50;;;;;;5038595;28;20033;-68
2021/10/01 00:35:29;;;;;;;3.70;2.78;;;6.30;87.60;;;;;;5049992;28;20033;-68
2021/10/01 00:37:54;;;;;;;3.15;2.50;;;6.20;87.80;;;;;;5037783;28;20025;-69
2021/10/01 00:40:20;;;;;;;5.72;3.38;;;6.20;87.80;;;;;;5042931;28;20458;-68
2021/10/01 00:42:45;;;;;;;4.55;2.90;;;6.20;88.00;;;;;;5045179;28;20406;-69
2021/10/01 00:45:11;;;;;;;4.03;2.75;;;6.20;88.00;;;;;;5036220;28;20372;-69
2021/10/01 00:47:36;;;;;;;2.30;2.10;;;6.20;87.90;;;;;;5049418;28;20556;-68
2021/10/01 00:50:03;;;;;;;3.35;2.58;;;6.20;88.10;;;;;;5037271;28;20112;-68
2021/10/01 00:52:28;;;;;;;6.88;3.10;;;6.20;88.00;;;;;;5041853;28;20021;-68
2021/10/01 00:54:54;;;;;;;5.65;3.17;;;6.20;88.00;;;;;;5038756;28;20067;-68
2021/10/01 00:57:20;;;;;;;5.18;2.35;;;6.10;88.10;;;;;;5047807;28;20090;-68
2021/10/01 00:59:45;;;;;;;4.10;2.80;;;6.10;88.10;;;;;;5036024;28;20437;-68
2021/10/01 01:02:11;;;;;;;4.72;3.08;;;6.10;88.10;;;;;;5043960;28;20022;-68
2021/10/01 01:04:43;;;;;;;6.32;2.92;;;6.10;88.00;;;;;;5041924;28;20036;-68
2021/10/01 01:07:49;;;;;;;4.10;2.88;;;6.10;88.00;;;;;;5037413;28;20057;-69
2021/10/01 01:10:31;;;;;;;4.38;2.85;;;6.10;88.00;;;;;;4997866;28;20072;-68
2021/10/01 01:13:09;;;;;;;4.82;2.80;;;6.10;88.20;;;;;;5044804;28;20029;-68
2021/10/01 01:15:41;;;;;;;3.97;2.30;;;6.10;88.10;;;;;;5035768;28;20028;-68
2021/10/01 01:18:23;;;;;;;4.35;2.40;;;6.00;88.20;;;;;;5045725;28;20014;-68
2021/10/01 01:20:51;;;;;;;5.45;2.60;;;6.00;88.10;;;;;;5044156;28;20572;-68
2021/10/01 01:23:47;;;;;;;7.25;2.85;;;6.00;88.20;;;;;;5035931;28;20407;-68
2021/10/01 01:26:49;;;;;;;6.03;3.22;;;5.90;88.40;;;;;;5027152;28;20032;-68
2021/10/01 01:29:21;;;;;;;4.85;3.20;;;5.90;88.60;;;;;;5036262;28;20430;-68
2021/10/01 01:31:56;;;;;;;3.08;2.78;;;5.80;88.60;;;;;;5018624;28;20053;-68
2021/10/01 01:34:32;;;;;;;3.53;2.80;;;5.90;88.50;;;;;;5043437;28;20021;-69
2021/10/01 01:37:06;;;;;;;6.70;3.47;;;5.80;88.60;;;;;;5045739;28;20029;-68
2021/10/01 01:39:35;;;;;;;5.82;3.70;;;5.90;88.90;;;;;;5033774;28;20495;-68
2021/10/01 01:42:02;;;;;;;8.73;3.38;;;5.80;89.10;;;;;;5051094;28;20041;-68
2021/10/01 01:44:29;;;;;;;5.55;3.08;;;5.80;89.10;;;;;;5042438;28;20033;-69
2021/10/01 01:46:57;;;;;;;4.40;3.50;;;5.80;89.10;;;;;;5044857;28;20032;-68
2021/10/01 01:49:23;;;;;;;3.78;2.85;;;5.80;89.30;;;;;;5034963;28;20447;-69
2021/10/01 01:51:49;;;;;;;10.35;3.47;;;5.70;89.20;;;;;;5046251;28;20021;-69
2021/10/01 01:54:17;;;;;;;7.38;3.60;;;5.80;89.40;;;;;;5036347;28;20040;-69
2021/10/01 01:56:44;;;;;;;6.47;3.90;;;5.70;89.50;;;;;;5043337;28;20044;-69
2021/10/01 01:59:10;;;;;;;6.88;3.75;;;5.80;89.60;;;;;;5034809;28;20121;-69
2021/10/01 02:01:36;;;;;;;6.57;4.13;;;5.70;89.50;;;;;;5047891;28;20455;-69
2021/10/01 02:04:03;;;;;;;7.50;3.90;;;5.70;89.50;;;;;;5036410;28;20049;-69
2021/10/01 02:06:30;;;;;;;4.82;3.80;;;5.70;89.70;;;;;;5041993;28;20029;-69
2021/10/01 02:08:58;;;;;;;5.68;3.58;;;5.70;89.60;;;;;;5044793;28;20091;-68
2021/10/01 02:11:25;;;;;;;5.22;3.83;;;5.70;89.80;;;;;;5034762;28;20022;-68
2021/10/01 02:13:52;;;;;;;6.18;3.72;;;5.70;89.60;;;;;;5045739;28;20434;-69
2021/10/01 02:16:19;;;;;;;6.00;4.35;;;5.70;89.60;;;;;;5039580;28;20096;-68
2021/10/01 02:18:48;;;;;;;6.63;3.92;;;5.60;89.80;;;;;;5039669;28;20488;-68
2021/10/01 02:21:15;;;;;;;6.43;4.22;;;5.60;89.80;;;;;;5046787;28;20418;-69
2021/10/01 02:23:41;;;;;;;6.55;3.88;;;5.60;89.90;;;;;;5034573;28;20074;-69
2021/10/01 02:28:59;;;;;;;6.13;4.30;;;5.60;89.90;;;;;;5033041;28;20110;-68
2021/10/01 02:31:47;;;;;;;6.35;4.22;;;5.50;90.00;;;;;;5046318;28;20471;-69
2021/10/01 02:34:15;;;;;;;5.07;3.95;;;5.60;90.20;;;;;;5037775;28;20116;-68
2021/10/01 02:36:41;;;;;;;6.68;4.13;;;5.50;90.10;;;;;;5042759;28;20029;-68
2021/10/01 02:39:06;;;;;;;8.48;4.60;;;5.50;90.00;;;;;;5049923;28;20037;-68
2021/10/01 02:41:32;;;;;;;5.82;4.38;;;5.50;90.10;;;;;;5038775;28;20491;-68
2021/10/01 02:43:57;;;;;;;6.60;4.50;;;5.40;90.10;;;;;;5049808;28;20393;-68
2021/10/01 02:46:23;;;;;;;7.78;5.00;;;5.40;90.30;;;;;;5043810;28;20082;-68
2021/10/01 02:48:49;;;;;;;6.55;4.30;;;5.40;90.50;;;;;;5042706;28;20025;-68
2021/10/01 02:51:19;;;;;;;6.25;4.25;;;5.50;90.50;;;;;;5050578;28;20060;-68
2021/10/01 02:54:08;;;;;;;8.43;4.80;;;5.50;90.30;;;;;;5022371;28;20017;-69
2021/10/01 02:56:42;;;;;;;8.80;4.47;;;5.40;90.20;;;;;;5035554;28;20263;-68
2021/10/01 02:59:10;;;;;;;9.02;4.60;;;5.40;90.10;;;;;;5038327;28;20030;-68
2021/10/01 03:01:38;;;;;;;6.90;4.30;;;5.40;90.30;;;;;;5048047;28;20025;-68
2021/10/01 03:04:09;;;;;;;7.15;4.75;;;5.30;90.10;;;;;;5039228;28;20051;-68
2021/10/01 03:06:40;;;;;;;7.68;4.85;;;5.30;90.20;;;;;;5044503;28;20033;-68
2021/10/01 03:09:07;;;;;;;7.75;5.00;;;5.30;90.20;;;;;;5048988;28;20029;-68
2021/10/01 03:11:33;;;;;;;6.18;4.25;;;5.30;90.30;;;;;;5037995;28;20036;-68
2021/10/01 03:14:01;;;;;;;7.68;3.97;;;5.30;90.20;;;;;;5049087;28;20018;-68
2021/10/01 03:16:27;;;;;;;8.38;4.45;;;5.30;90.20;;;;;;5043843;28;20021;-68
2021/10/01 03:18:55;;;;;;;7.72;5.22;;;5.30;90.20;;;;;;5041502;28;20053;-68
2021/10/01 03:21:23;;;;;;;6.85;4.90;;;5.30;90.30;;;;;;5035047;28;20028;-67
2021/10/01 03:23:49;;;;;;;8.98;5.00;;;5.30;90.50;;;;;;5044060;28;20055;-68
2021/10/01 03:26:17;;;;;;;6.93;4.15;;;5.30;90.50;;;;;;5046566;28;20030;-68
2021/10/01 03:28:43;;;;;;;8.82;5.00;;;5.30;90.40;;;;;;5036079;28;20032;-69
2021/10/01 03:31:09;;;;;;;9.18;4.65;;;5.30;90.30;;;;;;5049008;28;20017;-68
2021/10/01 03:33:35;;;;;;;8.63;4.82;;;5.30;90.40;;;;;;5037556;28;20104;-68
2021/10/01 03:36:01;;;;;;;5.10;4.30;;;5.20;90.30;;;;;;5048315;28;20097;-68
2021/10/01 03:38:27;;;;;;;8.45;4.85;;;5.20;90.30;;;;;;5043419;28;20117;-68
2021/10/01 03:40:53;;;;;;;6.13;4.68;;;5.20;90.40;;;;;;5040769;28;20056;-68
2021/10/01 03:43:24;;;;;;;11.02;5.18;;;5.20;90.30;;;;;;5049097;28;20025;-68
2021/10/01 03:45:50;;;;;;;6.72;4.88;;;5.20;90.40;;;;;;5036746;28;20028;-68
2021/10/01 03:48:16;;;;;;;7.25;4.90;;;5.10;90.40;;;;;;5041894;28;20030;-68
2021/10/01 03:50:42;;;;;;;7.07;5.07;;;5.10;90.50;;;;;;5034718;28;20025;-68
2021/10/01 03:53:07;;;;;;;8.32;5.03;;;5.10;90.60;;;;;;5049052;28;20090;-68
2021/10/01 03:55:33;;;;;;;6.63;4.85;;;5.10;90.50;;;;;;5035568;28;20017;-68
2021/10/01 03:57:59;;;;;;;6.57;4.85;;;5.10;90.60;;;;;;5038330;28;20082;-68
2021/10/01 04:00:25;;;;;;;7.63;4.35;;;5.10;90.50;;;;;;5044584;28;20035;-68
2021/10/01 04:02:50;;;;;;;7.22;5.00;;;5.10;90.40;;;;;;5045228;28;20020;-69
2021/10/01 04:05:16;;;;;;;7.47;5.25;;;5.20;90.50;;;;;;5048418;28;20033;-68
2021/10/01 04:07:43;;;;;;;11.07;5.72;;;5.20;90.40;;;;;;5035469;28;20017;-69
2021/10/01 04:10:10;;;;;;;9.48;5.97;;;5.20;90.50;;;;;;5048964;28;20021;-69
2021/10/01 04:12:35;;;;;;;10.27;5.55;;;5.10;90.60;;;;;;5043229;28;20018;-71
2021/10/01 04:15:01;;;;;;;11.52;5.38;;;5.20;90.70;;;;;;5047629;28;20044;-68
2021/10/01 04:17:27;;;;;;;8.05;5.30;;;5.20;90.80;;;;;;5036838;28;20491;-69
2021/10/01 04:19:52;;;;;;;11.40;5.70;;;5.20;90.70;;;;;;5048571;28;20021;-68
2021/10/01 04:22:18;;;;;;;7.85;5.18;;;5.20;90.80;;;;;;5041552;28;20079;-68
2021/10/01 04:24:44;;;;;;;11.10;5.57;;;5.20;90.70;;;;;;5037544;28;20541;-68
2021/10/01 04:27:10;;;;;;;11.95;5.50;;;5.20;90.80;;;;;;5048084;28;20059;-68
2021/10/01 04:29:35;;;;;;;6.68;5.15;;;5.20;90.80;;;;;;5035576;28;20037;-69
2021/10/01 04:32:04;;;;;;;9.60;5.13;;;5.30;90.70;;;;;;5047265;28;20033;-69
2021/10/01 04:34:33;;;;;;;15.07;6.35;;;5.20;90.60;;;;;;5042366;28;20097;-68
2021/10/01 04:36:59;;;;;;;8.75;5.78;;;5.30;90.60;;;;;;5039184;28;20029;-69
2021/10/01 04:39:25;;;;;;;9.18;5.95;;;5.30;90.60;;;;;;5046733;28;20036;-68
2021/10/01 04:41:50;;;;;;;8.95;5.57;;;5.20;90.40;;;;;;5067371;22;20037;-68
2021/10/01 04:44:16;;;;;;;8.80;6.20;;;5.20;90.50;;;;;;5060325;28;20019;-70
2021/10/01 04:46:41;;;;;;;6.57;5.65;;;5.30;90.50;;;;;;5071193;28;20120;-72
2021/10/01 04:49:07;;;;;;;10.02;5.47;;;5.30;90.40;;;;;;5071091;28;20021;-73
2021/10/01 04:51:32;;;;;;;8.57;6.03;;;5.30;90.30;;;;;;5055883;28;20029;-72
2021/10/01 04:53:58;;;;;;;9.68;5.38;;;5.30;90.30;;;;;;5070603;28;20020;-71
2021/10/01 04:56:24;;;;;;;7.97;5.10;;;5.30;90.20;;;;;;5071735;28;20024;-71
2021/10/01 04:58:49;;;;;;;9.38;5.30;;;5.30;90.10;;;;;;5071042;28;20078;-69
2021/10/01 05:01:15;;;;;;;7.18;5.28;;;5.30;90.10;;;;;;5064801;28;20056;-71
2021/10/01 05:03:40;;;;;;;8.82;5.65;;;5.30;90.10;;;;;;5071613;28;20021;-68
2021/10/01 05:06:06;;;;;;;9.30;5.13;;;5.30;90.10;;;;;;5070838;28;20395;-72
2021/10/01 05:08:32;;;;;;;9.82;5.38;;;5.30;90.10;;;;;;5070571;28;20127;-72
2021/10/01 05:10:57;;;;;;;7.90;5.68;;;5.30;90.20;;;;;;5071131;28;20394;-71
2021/10/01 05:13:23;;;;;;;9.82;5.93;;;5.40;90.10;;;;;;5070537;28;20024;-70
2021/10/01 05:15:50;;;;;;;7.32;5.05;;;5.50;89.90;;;;;;5068210;28;20469;-73
2021/10/01 05:18:16;;;;;;;12.43;5.28;;;5.50;89.90;;;;;;5068054;28;20028;-71
2021/10/01 05:20:42;;;;;;;13.77;6.00;;;5.50;89.60;;;;;;5071188;28;20024;-70
2021/10/01 05:23:08;;;;;;;10.73;5.75;;;5.70;89.60;;;;;;5070162;28;20154;-71
2021/10/01 05:25:34;;;;;;;10.50;5.40;;;5.80;89.30;;;;;;5071420;28;20104;-72
2021/10/01 05:27:59;;;;;;;9.60;5.10;;;6.00;88.90;;;;;;5071310;28;20113;-72
2021/10/01 05:30:25;;;;;;;8.23;4.68;;;6.20;87.90;;;;;;5071471;28;20139;-74
2021/10/01 05:32:51;;;;;;;7.70;4.00;;;6.70;87.40;;;;;;5071588;28;20092;-71
2021/10/01 05:35:16;;;;;;;4.70;3.67;;;7.40;84.80;;;;;;5070303;28;20524;-72
2021/10/01 05:37:42;;;;;;;6.80;3.53;;;7.90;82.90;;;;;;5071160;28;20048;-70
2021/10/01 05:40:08;;;;;;;11.68;3.72;;;8.20;79.90;;;;;;5071133;28;20062;-71
2021/10/01 05:42:34;;;;;;;9.70;4.15;;;8.30;79.00;;;;;;5070558;28;20486;-72
2021/10/01 05:45:00;;;;;;;7.50;3.92;;;8.40;78.70;;;;;;5071351;28;20033;-71
2021/10/01 05:47:27;;;;;;;7.88;3.92;;;8.70;78.10;;;;;;5071262;28;20107;-72
2021/10/01 05:49:53;;;;;;;7.38;3.50;;;9.00;76.50;;;;;;5070948;28;20078;-72
2021/10/01 05:52:24;;;;;;;7.28;3.83;;;9.70;74.10;;;;;;5069446;28;20416;-70
2021/10/01 05:54:51;;;;;;;7.57;4.43;;;10.00;73.30;;;;;;5071055;28;20025;-69
2021/10/01 05:57:18;;;;;;;7.95;3.35;;;10.60;70.40;;;;;;5069771;28;20043;-71
2021/10/01 05:59:45;;;;;;;8.40;3.55;;;11.10;68.60;;;;;;5070927;28;20027;-72
2021/10/01 06:02:19;;;;;;;7.13;3.58;;;11.80;66.80;;;;;;5065697;28;20017;-72
2021/10/01 06:04:46;;;;;;;6.95;4.00;;;12.40;63.90;;;;;;5070945;28;20033;-72
2021/10/01 06:07:13;;;;;;;9.23;3.95;;;12.70;61.50;;;;;;5070956;28;20025;-70
2021/10/01 06:09:41;;;;;;;11.02;3.40;;;12.70;61.50;;;;;;5068696;28;20052;-72
2021/10/01 06:12:09;;;;;;;6.50;3.42;;;12.90;61.20;;;;;;5068110;28;20065;-72
2021/10/01 06:14:36;;;;;;;5.10;3.58;;;13.40;59.70;;;;;;5066817;28;20571;-72
2021/10/01 06:17:03;;;;;;;12.07;4.03;;;13.80;57.80;;;;;;5068672;28;20119;-74
2021/10/01 06:19:28;;;;;;;5.63;3.08;;;13.70;57.90;;;;;;5069397;28;20028;-73
2021/10/01 06:21:56;;;;;;;6.80;3.58;;;13.70;57.50;;;;;;5082051;28;20107;-71
2021/10/01 06:24:22;;;;;;;13.57;4.22;;;13.60;58.10;;;;;;5061299;28;20411;-72
2021/10/01 06:26:48;;;;;;;9.80;4.15;;;12.70;59.80;;;;;;5070505;28;20174;-69
2021/10/01 06:29:15;;;;;;;10.13;4.22;;;12.30;61.80;;;;;;5071158;28;20024;-69
2021/10/01 06:31:41;;;;;;;7.38;3.03;;;12.50;62.50;;;;;;5071100;28;20414;-72
2021/10/01 06:34:07;;;;;;;8.05;4.18;;;13.60;59.40;;;;;;5070043;28;20021;-72
2021/10/01 06:36:33;;;;;;;5.80;3.90;;;14.10;57.40;;;;;;5071231;28;20056;-73
2021/10/01 06:38:58;;;;;;;10.88;4.40;;;14.60;56.60;;;;;;5071275;28;20131;-73
2021/10/01 06:41:24;;;;;;;9.88;3.42;;;15.50;54.60;;;;;;5070516;28;20074;-73
2021/10/01 06:43:57;;;;;;;8.13;3.80;;;16.50;51.50;;;;;;5069931;28;20020;-72
2021/10/01 06:46:38;;;;;;;9.38;3.60;;;16.90;50.00;;;;;;5070882;28;20028;-73
2021/10/01 07:22:34;;;;;;;14.95;8.45;;;17.70;46.60;;;;;;5070059;28;20035;-71
2021/10/01 07:36:20;;;;;;;6.15;2.78;;;14.90;53.80;;;;;;5074656;28;20035;-68
2021/10/01 08:21:40;;;;;;;5.68;3.38;;;13.00;61.80;;;;;;5071423;28;20025;-70
2021/10/01 08:24:06;;;;;;;7.13;3.28;;;13.00;62.20;;;;;;5064203;28;20021;-71
2021/10/01 08:26:31;;;;;;;8.48;3.63;;;13.00;63.40;;;;;;5073141;28;20490;-70
2021/10/01 08:28:57;;;;;;;7.80;3.35;;;13.10;63.10;;;;;;5071820;28;20524;-70
2021/10/01 08:31:27;;;;;;;8.45;3.92;;;13.30;62.40;;;;;;5071386;28;20562;-70
2021/10/01 08:33:53;;;;;;;5.72;3.30;;;13.70;61.60;;;;;;5072296;28;20027;-71
2021/10/01 08:36:19;;;;;;;4.95;3.13;;;14.30;60.40;;;;;;5072921;28;20020;-70
2021/10/01 08:38:45;;;;;;;11.20;3.75;;;14.70;57.60;;;;;;5072806;28;20056;-71
2021/10/01 08:41:14;;;;;;;4.13;2.83;;;14.90;57.40;;;;;;5072510;28;20023;-71
2021/10/01 08:43:44;;;;;;;9.07;3.20;;;15.00;57.20;;;;;;5071603;28;20058;-69
2021/10/01 08:46:10;;;;;;;5.47;2.97;;;14.80;58.20;;;;;;5072805;28;20013;-71
2021/10/01 08:48:37;;;;;;;8.80;3.28;;;14.60;58.40;;;;;;5072630;28;20020;-70
2021/10/01 08:51:06;;;;;;;4.45;2.53;;;14.50;58.40;;;;;;5070887;28;20092;-70
2021/10/01 08:53:33;;;;;;;6.18;2.85;;;14.50;59.00;;;;;;5071021;28;20027;-69
2021/10/01 08:55:58;;;;;;;10.18;4.60;;;14.70;58.00;;;;;;5072577;28;20686;-69
2021/10/01 08:58:26;;;;;;;6.68;2.95;;;14.80;57.90;;;;;;5072581;28;20028;-73
2021/10/01 09:00:53;;;;;;;5.57;2.60;;;15.00;57.10;;;;;;5070147;28;20024;-74
2021/10/01 09:03:18;;;;;;;6.15;1.88;;;15.20;55.60;;;;;;5066858;28;20044;-73
2021/10/01 09:05:44;;;;;;;2.67;2.00;;;15.50;55.00;;;;;;5069633;28;20054;-74
2021/10/01 09:08:16;;;;;;;14.60;8.43;;;15.70;54.10;;;;;;5072115;28;20020;-74
2021/10/01 09:10:41;;;;;;;4.28;1.88;;;15.90;52.70;;;;;;5070620;28;20032;-74
2021/10/01 09:13:10;;;;;;;4.72;1.88;;;16.10;50.10;;;;;;5072172;28;20025;-71
2021/10/01 09:15:42;;;;;;;3.85;1.95;;;16.30;50.60;;;;;;5071778;28;20024;-72
2021/10/01 09:18:08;;;;;;;3.35;1.80;;;16.40;50.00;;;;;;5067962;28;20055;-71
2021/10/01 09:20:34;;;;;;;66.45;33.92;;;16.50;49.70;;;;;;5059174;28;20163;-72
2021/10/01 09:23:21;;;;;;;186.15;79.25;;;16.60;50.40;;;;;;5070615;28;20064;-70
2021/10/01 09:25:47;;;;;;;33.55;15.18;;;17.00;49.20;;;;;;5059753;28;20036;-70
2021/10/01 09:28:12;;;;;;;78.88;40.90;;;17.00;48.50;;;;;;5062952;28;20024;-70
2021/10/01 09:30:49;;;;;;;12.60;3.00;;;16.90;50.20;;;;;;5079000;28;20060;-71
2021/10/01 09:33:17;;;;;;;16.85;7.88;;;16.90;49.60;;;;;;5069178;28;20024;-70
2021/10/01 09:35:44;;;;;;;10.65;2.00;;;17.00;49.20;;;;;;5071333;28;20020;-71
2021/10/01 09:38:20;;;;;;;5.60;2.08;;;17.00;48.10;;;;;;5071079;28;20033;-71
2021/10/01 09:41:06;;;;;;;3.88;1.45;;;17.00;48.00;;;;;;5070268;28;20033;-70
2021/10/01 09:43:32;;;;;;;10.85;5.15;;;16.80;47.40;;;;;;5072041;28;20049;-70
2021/10/01 09:46:06;;;;;;;16.58;8.25;;;17.00;49.00;;;;;;5074969;28;20025;-72
2021/10/01 09:48:37;;;;;;;5.28;1.75;;;16.90;49.00;;;;;;5070007;28;20024;-69
2021/10/01 09:51:12;;;;;;;6.78;2.83;;;17.00;48.20;;;;;;5069610;28;20042;-71
2021/10/01 09:53:46;;;;;;;7.65;3.50;;;16.90;48.30;;;;;;5071478;28;20096;-71
2021/10/01 09:56:29;;;;;;;3.55;1.17;;;16.80;48.00;;;;;;5067222;28;20033;-70
2021/10/01 09:59:13;;;;;;;5.03;2.88;;;16.70;47.30;;;;;;5066007;28;20024;-70
2021/10/01 10:02:10;;;;;;;8.43;4.10;;;16.80;50.80;;;;;;5070351;28;20486;-71
2021/10/01 10:04:53;;;;;;;5.70;1.58;;;17.00;46.00;;;;;;5070387;28;20429;-71
2021/10/01 10:07:24;;;;;;;4.90;1.58;;;17.00;46.30;;;;;;5059309;28;20029;-70
2021/10/01 10:09:56;;;;;;;20.85;11.15;;;17.10;47.10;;;;;;5070851;28;20097;-70
2021/10/01 10:12:35;;;;;;;7.28;2.53;;;17.30;48.10;;;;;;5068873;28;20025;-71
2021/10/01 10:15:09;;;;;;;10.15;5.95;;;17.10;47.50;;;;;;5065532;28;20056;-71
2021/10/01 10:17:43;;;;;;;5.38;2.65;;;17.10;47.70;;;;;;5067828;28;20569;-70
2021/10/01 10:20:09;;;;;;;1.10;0.75;;;17.10;47.10;;;;;;5070744;28;20054;-70
2021/10/01 10:22:35;;;;;;;22.67;11.57;;;17.00;44.50;;;;;;5071638;28;20024;-70
2021/10/01 10:25:00;;;;;;;2.53;1.75;;;17.30;52.10;;;;;;5074761;28;20028;-70
2021/10/01 10:27:27;;;;;;;2.72;0.90;;;17.20;45.70;;;;;;5070530;28;20025;-73
2021/10/01 10:29:53;;;;;;;1.88;0.90;;;17.00;44.10;;;;;;5067552;28;20028;-72
2021/10/01 10:32:23;;;;;;;3.13;1.67;;;17.00;44.30;;;;;;5070177;28;20506;-74
2021/10/01 10:34:55;;;;;;;1.77;0.82;;;16.90;45.50;;;;;;5067573;28;20029;-72
2021/10/01 10:37:35;;;;;;;3.45;0.90;;;16.80;44.90;;;;;;5048639;28;20041;-71
2021/10/01 10:40:06;;;;;;;1.75;1.15;;;16.70;43.90;;;;;;5049130;28;20151;-73
2021/10/01 10:42:40;;;;;;;3.00;2.00;;;16.70;45.30;;;;;;5059234;28;20051;-74
2021/10/01 10:45:22;;;;;;;1.58;0.90;;;16.80;46.10;;;;;;5079603;22;20043;-66
2021/10/01 10:48:08;;;;;;;2.33;1.20;;;16.90;44.00;;;;;;5047098;28;20057;-67
2021/10/01 10:50:46;;;;;;;3.22;1.15;;;16.90;41.80;;;;;;5049204;28;20142;-67
2021/10/01 10:53:25;;;;;;;4.10;0.82;;;16.80;42.60;;;;;;5048984;28;20052;-67
2021/10/01 10:56:03;;;;;;;3.20;0.70;;;16.70;41.80;;;;;;5050626;28;20086;-68
2021/10/01 10:58:31;;;;;;;1.27;0.90;;;16.80;43.10;;;;;;5053260;28;20541;-67
2021/10/01 11:01:13;;;;;;;1.25;0.70;;;16.90;42.00;;;;;;5050252;28;20029;-68
2021/10/01 11:03:39;;;;;;;1.10;0.52;;;16.80;41.10;;;;;;5041656;28;20033;-68
2021/10/01 11:06:11;;;;;;;3.92;0.95;;;16.70;41.20;;;;;;5055070;28;20033;-67
2021/10/01 11:08:39;;;;;;;5.15;1.63;;;16.80;42.30;;;;;;5054913;28;20025;-67
2021/10/01 11:11:25;;;;;;;1.83;1.13;;;16.90;43.10;;;;;;5053058;28;20120;-67
2021/10/01 11:13:51;;;;;;;2.85;1.05;;;16.90;41.70;;;;;;5052186;28;20102;-67
2021/10/01 11:16:18;;;;;;;3.05;1.40;;;16.90;41.20;;;;;;5052164;28;20490;-67
2021/10/01 11:18:46;;;;;;;1.67;0.80;;;17.00;40.70;;;;;;5050033;28;20100;-67
2021/10/01 11:21:36;;;;;;;2.42;0.60;;;16.90;40.70;;;;;;5051128;28;20071;-67
2021/10/01 11:24:18;;;;;;;3.15;1.40;;;17.00;39.80;;;;;;5045221;28;20367;-67
2021/10/01 11:26:44;;;;;;;1.77;0.98;;;17.00;39.40;;;;;;5052557;28;20021;-67
2021/10/01 11:29:23;;;;;;;2.75;1.38;;;17.00;40.90;;;;;;5051548;28;20494;-67
2021/10/01 11:31:52;;;;;;;3.45;0.90;;;17.00;41.20;;;;;;5053126;28;20036;-67
2021/10/01 11:34:18;;;;;;;1.08;0.70;;;17.00;39.20;;;;;;5053268;28;20031;-66
2021/10/01 11:36:43;;;;;;;3.15;1.27;;;17.00;37.80;;;;;;5052895;28;20061;-67
2021/10/01 11:39:13;;;;;;;4.43;1.00;;;17.10;38.40;;;;;;5053655;28;20079;-66
2021/10/01 11:41:40;;;;;;;2.97;1.10;;;17.10;38.30;;;;;;5053681;28;20025;-66
2021/10/01 11:44:08;;;;;;;2.45;1.10;;;17.10;38.00;;;;;;5054026;28;20062;-66
2021/10/01 11:46:42;;;;;;;2.50;0.75;;;17.20;39.10;;;;;;5054116;28;20029;-67
2021/10/01 11:49:24;;;;;;;1.13;0.95;;;17.10;38.20;;;;;;5052789;28;20021;-67
2021/10/01 11:52:04;;;;;;;3.72;0.90;;;17.20;38.20;;;;;;5054098;28;20052;-67
2021/10/01 11:54:31;;;;;;;5.03;1.92;;;17.20;37.10;;;;;;5054068;28;20474;-66
2021/10/01 11:56:59;;;;;;;2.95;1.05;;;17.30;40.00;;;;;;5053948;28;20036;-66
2021/10/01 11:59:45;;;;;;;3.28;1.50;;;17.30;39.70;;;;;;5053745;28;20021;-68
2021/10/01 12:02:11;;;;;;;5.15;0.90;;;17.30;37.50;;;;;;5053747;28;20039;-67
2021/10/01 12:04:36;;;;;;;1.83;0.80;;;17.20;36.20;;;;;;5052792;28;20104;-67
2021/10/01 12:07:06;;;;;;;3.15;1.15;;;17.20;37.00;;;;;;5053729;28;20025;-68
2021/10/01 12:09:33;;;;;;;2.17;1.33;;;17.20;37.80;;;;;;5053627;28;20025;-68
2021/10/01 12:12:09;;;;;;;1.83;0.88;;;17.10;39.40;;;;;;5053643;28;20021;-68
2021/10/01 12:14:35;;;;;;;3.95;0.95;;;17.20;37.80;;;;;;5052465;28;20032;-68
2021/10/01 12:17:04;;;;;;;3.75;1.20;;;17.40;37.50;;;;;;5053544;28;20025;-68
2021/10/01 12:19:31;;;;;;;1.50;1.00;;;17.40;37.10;;;;;;5051875;28;20020;-66
2021/10/01 12:22:12;;;;;;;2.40;1.02;;;17.40;37.90;;;;;;5053324;28;20029;-67
2021/10/01 12:24:55;;;;;;;3.28;1.40;;;17.40;36.80;;;;;;5053514;28;20017;-67
2021/10/01 12:27:40;;;;;;;1.90;1.55;;;17.40;37.20;;;;;;5053423;28;20517;-67
2021/10/01 12:30:08;;;;;;;1.83;0.98;;;17.40;38.30;;;;;;5051535;28;20028;-67
2021/10/01 12:32:34;;;;;;;5.32;1.45;;;17.40;38.60;;;;;;5052872;28;20470;-67
2021/10/01 12:35:01;;;;;;;3.85;1.00;;;17.40;37.50;;;;;;5051704;28;20021;-67
2021/10/01 12:37:30;;;;;;;3.25;1.25;;;17.50;37.60;;;;;;5053058;28;20024;-67
2021/10/01 12:39:58;;;;;;;1.33;0.95;;;17.40;39.60;;;;;;5052719;28;20064;-67
2021/10/01 12:42:36;;;;;;;3.03;0.98;;;17.40;38.00;;;;;;5053087;28;20025;-67
2021/10/01 12:45:12;;;;;;;5.25;1.05;;;17.30;37.00;;;;;;5052839;28;20422;-67
2021/10/01 12:47:40;;;;;;;4.38;1.10;;;17.40;37.00;;;;;;5052345;28;20437;-68
2021/10/01 12:50:12;;;;;;;4.15;1.00;;;17.40;37.10;;;;;;5049755;28;20094;-68
2021/10/01 12:52:39;;;;;;;7.13;1.35;;;17.50;38.20;;;;;;5050818;28;20027;-68
2021/10/01 12:55:11;;;;;;;5.80;1.25;;;17.50;38.10;;;;;;5051728;28;20437;-68
2021/10/01 12:57:42;;;;;;;2.45;1.33;;;17.50;38.00;;;;;;5051977;28;20099;-69
2021/10/01 13:00:22;;;;;;;4.68;0.93;;;17.50;38.10;;;;;;5052040;28;20033;-68
2021/10/01 13:02:50;;;;;;;2.35;1.30;;;17.50;37.90;;;;;;5052811;28;20044;-68
2021/10/01 13:05:23;;;;;;;3.83;1.27;;;17.50;39.40;;;;;;5052440;28;20025;-68
2021/10/01 13:07:51;;;;;;;3.42;1.80;;;17.40;40.30;;;;;;5052359;28;20017;-68
2021/10/01 13:10:21;;;;;;;8.25;2.15;;;17.40;40.20;;;;;;5052276;28;20418;-68
2021/10/01 13:12:52;;;;;;;5.53;1.63;;;17.50;42.40;;;;;;5051063;28;20029;-68
2021/10/01 13:15:29;;;;;;;6.38;2.47;;;17.50;41.60;;;;;;5051087;28;20029;-68
2021/10/01 13:18:27;;;;;;;3.72;1.77;;;17.50;42.10;;;;;;5051607;28;20021;-68
2021/10/01 13:21:02;;;;;;;9.05;2.42;;;17.50;41.60;;;;;;5051929;28;20024;-68
2021/10/01 13:23:44;;;;;;;4.70;2.13;;;17.50;42.70;;;;;;5052142;28;20032;-68
2021/10/01 13:26:14;;;;;;;;;;;17.40;43.60;;;;;;5052406;28;20135;-68
2021/10/01 13:28:42;;;;;;;4.55;2.17;;;17.40;43.80;;;;;;5051863;28;19909;-68
2021/10/01 13:31:08;;;;;;;3.75;2.00;;;17.50;44.70;;;;;;5052081;28;20056;-68
2021/10/01 13:33:34;;;;;;;8.43;2.10;;;17.40;43.90;;;;;;5052093;28;20156;-68
2021/10/01 13:35:59;;;;;;;7.60;2.22;;;17.40;45.20;;;;;;5052411;28;20055;-68
2021/10/01 13:38:29;;;;;;;6.25;2.50;;;17.40;43.50;;;;;;5051916;28;20033;-68
2021/10/01 13:40:55;;;;;;;7.47;3.20;;;17.40;44.50;;;;;;5050042;28;20028;-68
2021/10/01 13:43:21;;;;;;;5.57;2.75;;;17.40;45.70;;;;;;5050711;28;20052;-68
2021/10/01 13:45:46;;;;;;;6.30;2.72;;;17.30;46.00;;;;;;5050949;28;20445;-68
2021/10/01 13:48:13;;;;;;;11.38;3.55;;;17.30;46.00;;;;;;5051507;28;20029;-68
2021/10/01 13:50:40;;;;;;;10.82;2.42;;;17.30;46.50;;;;;;5051894;28;20028;-68
2021/10/01 13:53:05;;;;;;;11.68;3.15;;;17.30;46.20;;;;;;5051832;28;20021;-68
2021/10/01 13:55:31;;;;;;;7.15;3.30;;;17.30;47.20;;;;;;5051540;28;20104;-68
2021/10/01 13:57:56;;;;;;;5.75;2.88;;;17.30;46.10;;;;;;5051259;28;20025;-68
2021/10/01 14:00:24;;;;;;;9.18;3.38;;;17.30;45.90;;;;;;5049930;28;20483;-67
2021/10/01 14:02:49;;;;;;;11.15;2.90;;;17.20;46.00;;;;;;5051837;28;20116;-67
2021/10/01 14:05:15;;;;;;;5.60;2.88;;;17.20;47.60;;;;;;5050158;28;20063;-68
2021/10/01 14:07:42;;;;;;;7.32;2.95;;;17.30;47.60;;;;;;5051374;28;20394;-68
2021/10/01 14:10:10;;;;;;;20.45;3.13;;;17.30;48.60;;;;;;5050893;28;20032;-68
2021/10/01 14:12:36;;;;;;;7.22;2.95;;;17.30;46.80;;;;;;5051465;28;20028;-66
2021/10/01 14:15:03;;;;;;;7.55;2.90;;;17.30;47.00;;;;;;5051311;28;20029;-66
2021/10/01 14:17:29;;;;;;;7.13;2.42;;;17.30;47.40;;;;;;5051267;28;20058;-67
2021/10/01 14:19:55;;;;;;;11.60;2.50;;;17.30;47.80;;;;;;5051260;28;20718;-67
2021/10/01 14:22:21;;;;;;;5.90;3.38;;;17.20;46.90;;;;;;5050383;28;20033;-68
2021/10/01 14:24:47;;;;;;;6.95;3.13;;;17.20;48.10;;;;;;5050711;28;20029;-68
2021/10/01 14:27:13;;;;;;;7.07;2.63;;;17.20;47.50;;;;;;5051283;28;20474;-67
2021/10/01 14:29:39;;;;;;;6.88;2.70;;;17.20;48.30;;;;;;5051235;28;20023;-67
2021/10/01 14:32:05;;;;;;;3.55;2.55;;;17.20;50.10;;;;;;5053629;28;20108;-68